• Join FlightAware (Why Join?)
  • Login
  • US Flag GB Flag 
05:51 EST


 

Airport Tracker/Info


-or-


 

Live Flight TrackerFlight Track Log ✈ JBU1329 ✈ 16-May-2013 ✈ KBOS - KBWI

Flight Track Log - Related Links

Times and Time Zones

All times are in EDT time to prevent confusion due to time zone crossing. See the JBU1329 flight status page for this flight to view local times or setup timezone preferences in your user account.

Time Position Orientation Groundspeed Altitude Reporting Facility
EDT Latitude Longitude Course Direction KTS MPH feet Rate Location/Type
09:13 42.3500 -71.0167 240° Southwest 161 185 700  Level KA90
09:15 42.3763 -70.7319 172° South  Level FlightAware Approximate
09:15 42.3206 -70.8564 104° East 246 283 4,900  Level Boston Center
09:16 42.2850 -70.7392 228° Southwest  Level FlightAware Approximate
09:16 42.3189 -70.7497 91° East 270 311 8,000  Level Boston Center
09:17 42.2393 -70.8077 228° Southwest  Level FlightAware Approximate
09:17 42.2414 -70.7239 166° South 226 260 10,800  Level Boston Center
09:18 42.2036 -70.8860 240° Southwest  Level FlightAware Approximate
09:18 42.1819 -70.7869 218° Southwest 192 221 12,700  Level Boston Center
09:19 42.1669 -70.8911 259° West 227 261 15,300 2,400 Climbing Boston Center
09:20 42.1536 -70.9950 260° West 279 321 17,600 2,400 Climbing Boston Center
09:21 42.1428 -71.1297 264° West 311 358 20,200 2,220 Climbing Boston Center
09:22 42.1294 -71.2503 262° West 327 376 22,100 1,800 Climbing Boston Center
09:23 42.1139 -71.3711 260° West 337 388 23,900 1,500 Climbing Boston Center
09:24 42.0986 -71.5000 261° West 337 388 25,500 1,560 Climbing Boston Center
09:25 42.0747 -71.6569 258° West 352 405 27,400 1,500 Climbing Boston Center
09:26 42.0506 -71.7914 256° West 359 413 28,600 1,380 Climbing Boston Center
09:27 42.0011 -71.9122 241° Southwest 364 419 30,200 1,560 Climbing Boston Center
09:28 41.9517 -72.0325 241° Southwest 369 425 31,800 900 Climbing Boston Center
09:29 41.8997 -72.1528 240° Southwest 374 430 32,000 60 Climbing Boston Center
09:30 41.8481 -72.2756 241° Southwest 374 430 32,000  Level Boston Center
09:31 41.7939 -72.3983 239° Southwest 379 436 32,000  Level Boston Center
09:32 41.7439 -72.5208 241° Southwest 379 436 32,000  Level Boston Center
09:33 41.6917 -72.6431 240° Southwest 379 436 32,000  Level Boston Center
09:34 41.6392 -72.7650 240° Southwest 379 436 32,000  Level Boston Center
09:35 41.5953 -72.8647 240° Southwest 384 442 32,000  Level Boston Center
09:36 41.5425 -72.9864 240° Southwest 384 442 32,000  Level Boston Center
09:37 41.4856 -73.1161 240° Southwest 379 436 32,000  Level Boston Center
09:39 41.3767 -73.3675 240° Southwest 385 443 32,000  Level New York Center
09:40 41.3239 -73.4897 240° Southwest 390 449 32,000  Level New York Center
09:41 41.2669 -73.6114 238° Southwest 390 449 32,000  Level New York Center
09:42 41.1997 -73.7244 232° Southwest 396 456 32,000  Level New York Center
09:43 41.1322 -73.8372 232° Southwest 396 456 32,000  Level New York Center
09:44 41.0669 -73.9469 232° Southwest 396 456 32,000  Level New York Center
09:45 41.0014 -74.0567 232° Southwest 396 456 32,000  Level New York Center
09:46 40.9336 -74.1686 231° Southwest 391 450 32,000 -180 Level New York Center
09:47 40.8658 -74.2750 230° Southwest 391 450 31,700 -1,020 Descending New York Center
09:48 40.7981 -74.3867 231° Southwest 391 450 30,000 -1,740 Descending New York Center
09:49 40.7319 -74.4981 232° Southwest 391 450 28,300 -1,020 Descending New York Center
09:50 40.6681 -74.6042 232° Southwest 391 450 28,000 -180 Descending New York Center
09:51 40.6203 -74.7272 243° Southwest 384 442 28,000  Level New York Center
09:52 40.5744 -74.8531 244° Southwest 379 436 28,000 -180 Level New York Center
09:53 40.5283 -74.9786 244° Southwest 379 436 27,700 -900 Descending New York Center
09:54 40.4844 -75.0986 244° Southwest 379 436 26,300 -1,620 Descending New York Center
09:55 40.4303 -75.2097 237° Southwest 373 429 24,500 -1,980 Descending New York Center
09:56 40.3700 -75.3150 233° Southwest 373 429 22,400 -2,100 Descending New York Center
09:57 40.3119 -75.4119 232° Southwest 362 417 20,400 -1,740 Descending New York Center
09:58 40.2356 -75.4964 220° Southwest 357 411 19,000 -720 Descending New York Center
09:59 40.1461 -75.5447 202° Southwest 370 426 19,000  Level New York Center
10:00 40.0497 -75.6086 207° Southwest 362 417 19,000 -240 Level New York Center
10:01 39.9900 -75.6911 227° Southwest 351 404 18,600 -1,380 Descending New York Center
10:02 39.9192 -75.7892 227° Southwest 351 404 16,400 -2,040 Descending New York Center
10:03 39.8617 -75.8689 227° Southwest 340 391 14,600 -1,620 Descending New York Center
10:05 39.7500 -76.0167 226° Southwest 291 335 12,000 -960 Descending Potomac TRACON
10:06 39.7000 -76.1000 232° Southwest 251 289 12,000  Level Potomac TRACON
10:07 39.6667 -76.1667 237° Southwest 255 293 12,000 -300 Level Potomac TRACON
10:08 39.6167 -76.2500 232° Southwest 257 296 11,500 -540 Descending Potomac TRACON
10:09 39.5667 -76.3167 226° Southwest 264 304 11,000 -900 Descending Potomac TRACON
10:10 39.5167 -76.3667 218° Southwest 263 303 9,800 -1,500 Descending Potomac TRACON
10:11 39.4500 -76.4167 210° Southwest 268 308 8,000 -1,860 Descending Potomac TRACON
10:12 39.3667 -76.4167 180° South 294 338 6,100 -1,740 Descending Potomac TRACON
10:13 39.2833 -76.4333 189° South 271 312 4,400 -1,500 Descending Potomac TRACON
10:14 39.2167 -76.4667 201° Southwest 269 310 3,100 -900 Descending Potomac TRACON
10:15 39.1667 -76.5000 207° Southwest 229 264 2,700 -600 Descending Potomac TRACON
10:16 39.1167 -76.5500 218° Southwest 214 246 2,000 -600 Descending Potomac TRACON
10:17 39.1167 -76.6000 270° West 178 205 1,600 -660 Descending Potomac TRACON
10:18 39.1333 -76.6333 303° West 136 157 700 -900 Descending Potomac TRACON
10:20 39.1667 -76.6667 270° West  Level FlightAware Approximate
10:27 39.1754 -76.6683 270° West  Level Estimated
10:28 39.1754 -76.6683 270° West  Level Estimated